createdAt,value
2022-10-18T00:02:14.288Z,6.43
2022-10-18T00:04:40.918Z,6.88
2022-10-18T00:07:07.580Z,5.90
2022-10-18T00:09:34.231Z,6.80
2022-10-18T00:12:00.862Z,7.30
2022-10-18T00:14:27.463Z,7.88
2022-10-18T00:16:54.044Z,6.97
2022-10-18T00:19:20.629Z,7.75
2022-10-18T00:21:50.300Z,7.20
2022-10-18T00:24:17.170Z,7.10
2022-10-18T00:26:43.963Z,6.80
2022-10-18T00:29:14.019Z,7.10
2022-10-18T00:31:40.947Z,7.70
2022-10-18T00:34:12.231Z,6.32
2022-10-18T00:36:39.137Z,6.20
2022-10-18T00:39:07.357Z,5.93
2022-10-18T00:41:36.056Z,6.45
2022-10-18T00:44:13.184Z,6.55
2022-10-18T00:46:42.523Z,8.07
2022-10-18T00:49:17.159Z,6.65
2022-10-18T00:51:50.456Z,7.35
2022-10-18T00:54:19.386Z,6.00
2022-10-18T00:56:46.075Z,6.43
2022-10-18T00:59:15.057Z,7.28
2022-10-18T01:01:41.770Z,6.97
2022-10-18T01:04:08.435Z,5.80
2022-10-18T01:06:50.144Z,6.40
2022-10-18T01:09:35.033Z,6.32
2022-10-18T01:12:16.251Z,6.70
2022-10-18T01:15:01.598Z,6.72
2022-10-18T01:17:44.301Z,6.05
2022-10-18T01:20:37.969Z,6.30
2022-10-18T01:23:15.589Z,7.35
2022-10-18T01:25:49.967Z,7.22
2022-10-18T01:28:31.786Z,7.15
2022-10-18T01:31:03.695Z,6.78
2022-10-18T01:33:37.650Z,6.72
2022-10-18T01:36:17.418Z,6.70
2022-10-18T01:38:45.649Z,6.85
2022-10-18T01:41:15.780Z,6.75
2022-10-18T01:43:45.339Z,6.90
2022-10-18T01:46:17.482Z,7.18
2022-10-18T01:48:44.382Z,6.90
2022-10-18T01:51:11.506Z,6.95
2022-10-18T01:53:38.135Z,7.25
2022-10-18T01:56:24.701Z,6.88
2022-10-18T01:59:11.131Z,6.60
2022-10-18T02:01:52.647Z,6.97
2022-10-18T02:04:37.710Z,7.68
2022-10-18T02:07:13.139Z,6.70
2022-10-18T02:09:50.452Z,8.25
2022-10-18T02:12:18.691Z,7.07
2022-10-18T02:14:46.163Z,6.95
2022-10-18T02:17:13.850Z,7.80
2022-10-18T02:19:50.330Z,6.57
2022-10-18T02:22:17.619Z,7.60
2022-10-18T02:24:48.260Z,7.88
2022-10-18T02:27:14.863Z,6.80
2022-10-18T02:29:42.875Z,6.68
2022-10-18T02:32:18.067Z,7.13
2022-10-18T02:34:51.382Z,6.80
2022-10-18T02:37:18.683Z,7.78
2022-10-18T02:39:51.335Z,6.97
2022-10-18T02:42:17.970Z,6.68
2022-10-18T02:44:44.523Z,7.30
2022-10-18T02:47:12.167Z,7.00
2022-10-18T02:49:38.703Z,6.85
2022-10-18T02:52:05.253Z,6.63
2022-10-18T02:54:31.933Z,6.97
2022-10-18T02:56:58.463Z,6.97
2022-10-18T02:59:24.946Z,7.80
2022-10-18T03:01:51.513Z,7.68
2022-10-18T03:04:18.226Z,7.50
2022-10-18T03:06:44.792Z,6.90
2022-10-18T03:09:11.497Z,7.25
2022-10-18T03:11:38.056Z,6.40
2022-10-18T03:14:04.619Z,7.95
2022-10-18T03:16:31.502Z,6.60
2022-10-18T03:18:58.015Z,7.70
2022-10-18T03:21:24.538Z,7.00
2022-10-18T03:23:51.052Z,7.00
2022-10-18T03:26:17.840Z,7.35
2022-10-18T03:28:44.530Z,6.22
2022-10-18T03:31:11.152Z,7.13
2022-10-18T03:33:37.842Z,6.88
2022-10-18T03:36:04.520Z,7.35
2022-10-18T03:38:31.209Z,7.53
2022-10-18T03:40:57.703Z,7.28
2022-10-18T03:43:24.401Z,7.32
2022-10-18T03:45:52.175Z,7.53
2022-10-18T03:48:18.773Z,7.63
2022-10-18T03:50:45.396Z,6.75
2022-10-18T03:53:12.065Z,7.30
2022-10-18T03:55:38.683Z,7.00
2022-10-18T03:58:05.626Z,6.60
2022-10-18T04:00:32.310Z,7.55
2022-10-18T04:02:58.800Z,7.07
2022-10-18T04:05:27.786Z,7.22
2022-10-18T04:07:54.943Z,7.78
2022-10-18T04:10:21.753Z,7.93
2022-10-18T04:12:48.293Z,7.05
2022-10-18T04:15:14.953Z,6.90
2022-10-18T04:17:42.007Z,7.13
2022-10-18T04:20:09.002Z,7.82
2022-10-18T04:22:35.627Z,6.90
2022-10-18T04:25:02.164Z,6.57
2022-10-18T04:27:28.883Z,7.72
2022-10-18T04:29:55.563Z,7.30
2022-10-18T04:32:22.303Z,7.15
2022-10-18T04:34:48.835Z,7.20
2022-10-18T04:37:15.335Z,7.70
2022-10-18T04:39:49.779Z,6.75
2022-10-18T04:42:19.536Z,7.15
2022-10-18T04:44:46.183Z,7.13
2022-10-18T04:47:12.685Z,7.22
2022-10-18T04:49:39.542Z,7.30
2022-10-18T04:52:06.439Z,8.10
2022-10-18T04:54:32.982Z,7.72
2022-10-18T04:56:59.562Z,7.82
2022-10-18T04:59:26.098Z,7.63
2022-10-18T05:01:52.767Z,7.82
2022-10-18T05:04:19.334Z,8.20
2022-10-18T05:06:45.958Z,7.40
2022-10-18T05:09:12.649Z,7.47
2022-10-18T05:11:39.191Z,7.53
2022-10-18T05:14:05.792Z,7.78
2022-10-18T05:16:33.103Z,8.27
2022-10-18T05:18:59.606Z,7.20
2022-10-18T05:21:26.134Z,7.60
2022-10-18T05:23:56.270Z,7.82
2022-10-18T05:26:22.792Z,8.45
2022-10-18T05:28:50.509Z,8.57
2022-10-18T05:31:17.445Z,8.38
2022-10-18T05:33:44.037Z,8.05
2022-10-18T05:36:11.079Z,8.02
2022-10-18T05:38:45.484Z,8.48
2022-10-18T05:41:12.648Z,8.43
2022-10-18T05:43:39.703Z,8.00
2022-10-18T05:46:13.493Z,7.50
2022-10-18T05:48:41.959Z,7.90
2022-10-18T05:51:08.486Z,7.18
2022-10-18T05:53:37.381Z,7.78
2022-10-18T05:56:05.328Z,7.28
2022-10-18T05:58:31.998Z,7.68
2022-10-18T06:01:00.563Z,7.93
2022-10-18T06:03:27.758Z,7.85
2022-10-18T06:05:59.739Z,7.20
2022-10-18T06:08:26.300Z,7.75
2022-10-18T06:10:53.182Z,8.18
2022-10-18T06:13:19.716Z,7.20
2022-10-18T06:15:46.353Z,7.57
2022-10-18T06:18:13.063Z,7.50
2022-10-18T06:20:39.655Z,7.53
2022-10-18T06:23:06.773Z,7.30
2022-10-18T06:25:33.319Z,6.60
2022-10-18T06:27:59.852Z,7.00
2022-10-18T06:30:26.427Z,6.60
2022-10-18T06:32:52.978Z,7.88
2022-10-18T06:35:19.524Z,7.05
2022-10-18T06:37:46.076Z,7.07
2022-10-18T06:40:12.829Z,8.15
2022-10-18T06:42:39.400Z,7.78
2022-10-18T06:45:06.627Z,7.55
2022-10-18T06:47:33.150Z,7.72
2022-10-18T06:49:59.901Z,7.55
2022-10-18T06:52:26.480Z,7.70
2022-10-18T06:54:53.847Z,6.88
2022-10-18T06:57:21.636Z,7.70
2022-10-18T06:59:49.960Z,7.20
2022-10-18T07:02:17.398Z,6.60
2022-10-18T07:04:44.066Z,6.72
2022-10-18T07:07:10.609Z,6.75
2022-10-18T07:09:37.185Z,6.65
2022-10-18T07:12:03.968Z,6.55
2022-10-18T07:14:30.494Z,6.75
2022-10-18T07:16:59.482Z,6.32
2022-10-18T07:19:26.157Z,6.25
2022-10-18T07:21:52.731Z,6.20
2022-10-18T07:24:19.263Z,6.63
2022-10-18T07:26:45.797Z,6.60
2022-10-18T07:29:13.330Z,6.03
2022-10-18T07:31:40.881Z,6.18
2022-10-18T07:34:10.199Z,5.85
2022-10-18T07:36:37.055Z,6.25
2022-10-18T07:39:04.210Z,6.20
2022-10-18T07:41:33.411Z,5.70
2022-10-18T07:44:01.080Z,6.10
2022-10-18T07:46:27.767Z,5.95
2022-10-18T07:48:55.305Z,5.75
2022-10-18T07:51:22.237Z,5.70
2022-10-18T07:53:48.934Z,6.30
2022-10-18T07:56:19.098Z,5.53
2022-10-18T07:58:47.439Z,5.72
2022-10-18T08:01:15.170Z,5.75
2022-10-18T08:03:42.343Z,5.93
2022-10-18T08:06:11.010Z,5.68
2022-10-18T08:08:39.346Z,5.57
2022-10-18T08:11:11.592Z,5.72
2022-10-18T08:13:38.357Z,5.60
2022-10-18T08:16:11.098Z,5.55
2022-10-18T08:18:38.824Z,5.18
2022-10-18T08:21:07.818Z,5.55
2022-10-18T08:23:35.316Z,5.22
2022-10-18T08:26:07.078Z,5.60
2022-10-18T08:28:36.667Z,5.15
2022-10-18T08:31:08.465Z,5.28
2022-10-18T08:33:36.255Z,5.45
2022-10-18T08:36:07.979Z,5.30
2022-10-18T08:38:40.127Z,5.50
2022-10-18T08:41:38.787Z,5.07
2022-10-18T08:44:24.585Z,5.07
2022-10-18T08:47:34.849Z,5.28
2022-10-18T08:50:12.403Z,5.30
2022-10-18T08:52:49.648Z,5.35
2022-10-18T08:55:24.123Z,5.15
2022-10-18T08:57:51.523Z,5.38
2022-10-18T09:00:24.158Z,4.57
2022-10-18T09:02:56.618Z,4.60
2022-10-18T09:05:31.812Z,5.10
2022-10-18T09:08:26.507Z,4.82
2022-10-18T09:11:26.654Z,5.05
2022-10-18T09:14:14.659Z,4.15
2022-10-18T09:16:55.680Z,5.20
2022-10-18T09:19:22.138Z,4.75
2022-10-18T09:21:54.105Z,4.90
2022-10-18T09:24:37.544Z,4.68
2022-10-18T09:27:10.697Z,4.55
2022-10-18T09:29:49.492Z,4.55
2022-10-18T09:32:25.475Z,4.60
2022-10-18T09:34:58.728Z,4.35
2022-10-18T09:37:29.015Z,4.35
2022-10-18T09:40:20.792Z,3.80
2022-10-18T09:42:59.729Z,4.20
2022-10-18T09:45:34.599Z,4.20
2022-10-18T09:48:03.862Z,4.20
2022-10-18T09:51:02.513Z,3.63
2022-10-18T09:53:44.621Z,3.92
2022-10-18T09:56:17.234Z,3.30
2022-10-18T09:58:48.869Z,3.80
2022-10-18T10:01:29.064Z,3.78
2022-10-18T10:03:56.020Z,3.75
2022-10-18T10:06:30.363Z,3.20
2022-10-18T10:09:05.826Z,3.08
2022-10-18T10:11:45.459Z,3.65
2022-10-18T10:16:50.296Z,3.47
2022-10-18T10:19:26.431Z,3.53
2022-10-18T10:22:01.085Z,3.42
2022-10-18T10:24:49.997Z,3.50
2022-10-18T10:27:29.853Z,3.40
2022-10-18T10:30:01.550Z,3.78
2022-10-18T10:32:43.167Z,3.35
2022-10-18T10:35:35.455Z,3.55
2022-10-18T10:38:23.779Z,3.78
2022-10-18T10:40:50.566Z,3.40
2022-10-18T10:43:36.541Z,3.83
2022-10-18T10:46:21.209Z,3.80
2022-10-18T10:49:04.495Z,3.22
2022-10-18T10:51:41.452Z,3.58
2022-10-18T10:54:22.584Z,3.50
2022-10-18T10:57:04.078Z,3.88
2022-10-18T11:02:15.046Z,3.78
2022-10-18T11:04:42.513Z,3.47
2022-10-18T11:07:08.997Z,3.47
2022-10-18T11:09:51.259Z,3.78
2022-10-18T11:12:36.476Z,3.60
2022-10-18T11:15:18.367Z,3.35
2022-10-18T11:18:02.605Z,3.78
2022-10-18T11:20:40.643Z,3.60
2022-10-18T11:23:18.101Z,3.40
2022-10-18T11:26:08.416Z,3.55
2022-10-18T11:29:02.703Z,3.42
2022-10-18T11:31:38.058Z,3.15
2022-10-18T11:34:12.580Z,3.50
2022-10-18T11:37:26.361Z,3.00
2022-10-18T11:39:49.514Z,3.00
2022-10-18T11:42:28.698Z,3.20
2022-10-18T11:45:04.369Z,2.80
2022-10-18T11:47:52.260Z,2.78
2022-10-18T11:50:26.304Z,2.88
2022-10-18T11:53:17.641Z,2.88
2022-10-18T11:55:56.408Z,2.80
2022-10-18T11:58:41.613Z,2.80
2022-10-18T12:01:24.607Z,4.00
2022-10-18T12:04:01.883Z,3.25
2022-10-18T12:06:35.049Z,3.00
2022-10-18T12:11:41.016Z,3.13
2022-10-18T12:14:38.666Z,3.05
2022-10-18T12:17:40.206Z,2.88
2022-10-18T12:20:11.276Z,3.20
2022-10-18T12:22:51.300Z,3.00
2022-10-18T12:25:19.046Z,3.30
2022-10-18T12:27:53.852Z,2.75
2022-10-18T12:30:23.678Z,2.90
2022-10-18T12:33:03.347Z,2.70
2022-10-18T12:36:00.980Z,3.10
2022-10-18T12:38:32.044Z,2.80
2022-10-18T12:40:59.284Z,2.80
2022-10-18T12:43:36.436Z,2.85
2022-10-18T12:46:12.268Z,3.13
2022-10-18T12:48:47.980Z,2.70
2022-10-18T12:51:21.460Z,2.92
2022-10-18T12:54:09.359Z,3.10
2022-10-18T12:56:42.176Z,3.15
2022-10-18T12:59:17.650Z,2.70
2022-10-18T13:01:53.164Z,3.00
2022-10-18T13:04:29.072Z,2.88
2022-10-18T13:06:59.518Z,2.92
2022-10-18T13:09:36.627Z,3.15
2022-10-18T13:12:09.266Z,3.00
2022-10-18T13:15:25.898Z,3.45
2022-10-18T13:18:10.130Z,3.15
2022-10-18T13:21:07.164Z,3.10
2022-10-18T13:23:57.466Z,3.10
2022-10-18T13:26:54.138Z,3.30
2022-10-18T13:30:05.627Z,3.55
2022-10-18T13:32:52.535Z,3.20
2022-10-18T13:35:51.293Z,3.30
2022-10-18T13:38:45.811Z,3.30
2022-10-18T13:41:19.668Z,3.17
2022-10-18T13:44:11.583Z,3.15
2022-10-18T13:46:38.087Z,3.35
2022-10-18T13:49:23.282Z,3.30
2022-10-18T13:51:59.974Z,3.30
2022-10-18T13:54:55.609Z,3.53
2022-10-18T13:57:22.108Z,3.78
2022-10-18T14:00:07.510Z,3.38
2022-10-18T14:02:51.814Z,3.20
2022-10-18T14:05:24.969Z,3.42
2022-10-18T14:07:59.503Z,3.30
2022-10-18T14:11:00.886Z,3.38
2022-10-18T14:13:46.696Z,3.50
2022-10-18T14:16:39.202Z,3.67
2022-10-18T14:19:17.508Z,4.15
2022-10-18T14:21:53.922Z,4.63
2022-10-18T14:24:24.272Z,4.50
2022-10-18T14:27:24.767Z,5.53
2022-10-18T14:30:10.550Z,5.30
2022-10-18T14:32:37.210Z,6.22
2022-10-18T14:37:54.919Z,6.30
2022-10-18T14:40:28.247Z,5.97
2022-10-18T14:45:23.031Z,6.13
2022-10-18T14:47:49.820Z,6.47
2022-10-18T14:50:30.526Z,6.10
2022-10-18T14:52:57.564Z,6.45
2022-10-18T14:55:28.628Z,6.28
2022-10-18T14:57:55.326Z,6.68
2022-10-18T15:00:27.044Z,6.80
2022-10-18T15:02:53.825Z,6.10
2022-10-18T15:05:24.146Z,6.95
2022-10-18T15:07:52.263Z,6.65
2022-10-18T15:10:25.609Z,7.40
2022-10-18T15:13:10.115Z,6.22
2022-10-18T15:15:37.869Z,6.60
2022-10-18T15:18:05.331Z,6.65
2022-10-18T15:20:39.308Z,6.30
2022-10-18T15:23:35.046Z,9.13
2022-10-18T15:26:07.202Z,8.00
2022-10-18T15:28:49.994Z,7.90
2022-10-18T15:31:27.726Z,9.40
2022-10-18T15:34:07.435Z,9.32
2022-10-18T15:36:35.302Z,9.43
2022-10-18T15:39:13.812Z,9.13
2022-10-18T15:41:42.634Z,9.57
2022-10-18T15:44:22.581Z,9.05
2022-10-18T15:46:52.812Z,8.63
2022-10-18T15:49:25.375Z,8.25
2022-10-18T15:52:32.560Z,8.30
2022-10-18T15:55:22.667Z,7.07
2022-10-18T15:57:49.464Z,7.25
2022-10-18T16:00:19.841Z,7.40
2022-10-18T16:02:46.790Z,13.57
2022-10-18T16:05:19.029Z,10.10
2022-10-18T16:07:46.478Z,8.00
2022-10-18T16:10:14.040Z,9.35
2022-10-18T16:12:40.882Z,9.40
2022-10-18T16:15:08.252Z,8.50
2022-10-18T16:17:35.251Z,8.15
2022-10-18T16:20:02.074Z,8.35
2022-10-18T16:22:29.538Z,8.73
2022-10-18T16:24:57.729Z,8.45
2022-10-18T16:27:25.041Z,7.90
2022-10-18T16:29:51.540Z,11.38
2022-10-18T16:32:18.042Z,12.85
2022-10-18T16:34:44.587Z,11.50
2022-10-18T16:37:11.122Z,8.65
2022-10-18T16:39:37.627Z,7.88
2022-10-18T16:42:04.148Z,8.38
2022-10-18T16:44:30.681Z,7.93
2022-10-18T16:46:57.196Z,7.80
2022-10-18T16:49:25.955Z,8.63
2022-10-18T16:51:53.663Z,8.82
2022-10-18T16:54:20.325Z,8.13
2022-10-18T16:56:47.839Z,13.50
2022-10-18T16:59:24.135Z,13.27
2022-10-18T17:01:50.692Z,12.85
2022-10-18T17:04:17.264Z,11.90
2022-10-18T17:06:43.943Z,15.52
2022-10-18T17:09:14.187Z,19.02
2022-10-18T17:11:40.960Z,14.50
2022-10-18T17:14:07.621Z,16.75
2022-10-18T17:16:37.027Z,12.55
2022-10-18T17:19:07.092Z,10.00
2022-10-18T17:21:34.018Z,8.75
2022-10-18T17:24:06.039Z,8.38
2022-10-18T17:26:33.681Z,13.25
2022-10-18T17:29:03.791Z,9.75
2022-10-18T17:31:31.585Z,8.95
2022-10-18T17:34:01.371Z,7.70
2022-10-18T17:36:27.928Z,7.20
2022-10-18T17:38:54.706Z,8.13
2022-10-18T17:41:21.620Z,9.48
2022-10-18T17:43:48.627Z,9.30
2022-10-18T17:46:16.271Z,12.52
2022-10-18T17:48:43.125Z,11.80
2022-10-18T17:51:11.329Z,11.65
2022-10-18T17:53:38.289Z,12.77
2022-10-18T17:56:06.160Z,13.80
2022-10-18T17:58:32.826Z,10.82
2022-10-18T18:01:12.991Z,11.10
2022-10-18T18:03:40.285Z,10.63
2022-10-18T18:06:34.834Z,10.40
2022-10-18T18:09:07.691Z,11.50
2022-10-18T18:11:36.055Z,11.75
2022-10-18T18:14:02.757Z,12.80
2022-10-18T18:16:30.183Z,12.43
2022-10-18T18:18:58.184Z,11.95
2022-10-18T18:21:25.881Z,10.82
2022-10-18T18:23:53.246Z,11.00
2022-10-18T18:26:20.650Z,9.60
2022-10-18T18:28:48.217Z,9.43
2022-10-18T18:31:23.421Z,10.98
2022-10-18T18:33:51.716Z,11.60
2022-10-18T18:36:19.135Z,10.75
2022-10-18T18:38:46.719Z,9.43
2022-10-18T18:41:17.673Z,9.75
2022-10-18T18:43:49.315Z,9.48
2022-10-18T18:46:15.810Z,10.82
2022-10-18T18:48:42.939Z,11.00
2022-10-18T18:51:13.060Z,10.60
2022-10-18T18:53:40.781Z,11.05
2022-10-18T18:56:10.211Z,11.82
2022-10-18T18:58:39.155Z,9.43
2022-10-18T19:01:14.845Z,8.85
2022-10-18T19:03:42.819Z,8.13
2022-10-18T19:06:12.988Z,7.95
2022-10-18T19:08:40.245Z,7.95
2022-10-18T19:11:09.341Z,6.65
2022-10-18T19:13:36.301Z,7.63
2022-10-18T19:16:18.201Z,6.57
2022-10-18T19:18:51.728Z,7.20
2022-10-18T19:23:44.873Z,7.57
2022-10-18T19:26:24.817Z,6.93
2022-10-18T19:28:51.418Z,8.07
2022-10-18T19:31:18.095Z,7.47
2022-10-18T19:33:48.321Z,7.28
2022-10-18T19:36:22.709Z,7.35
2022-10-18T19:38:49.321Z,7.45
2022-10-18T19:41:16.104Z,7.80
2022-10-18T19:43:42.650Z,7.55
2022-10-18T19:46:09.327Z,7.78
2022-10-18T19:48:35.925Z,7.35
2022-10-18T19:51:09.026Z,7.70
2022-10-18T19:53:36.432Z,6.95
2022-10-18T19:56:05.277Z,9.32
2022-10-18T19:58:32.525Z,9.90
2022-10-18T20:01:00.266Z,8.75
2022-10-18T20:03:30.416Z,9.45
2022-10-18T20:06:02.049Z,9.90
2022-10-18T20:08:31.696Z,9.40
2022-10-18T20:11:06.021Z,9.27
2022-10-18T20:13:33.297Z,10.30
2022-10-18T20:15:59.896Z,9.73
2022-10-18T20:18:26.602Z,9.00
2022-10-18T20:20:53.647Z,9.52
2022-10-18T20:23:20.533Z,10.55
2022-10-18T20:26:01.030Z,11.05
2022-10-18T20:28:28.706Z,10.70
2022-10-18T20:31:06.660Z,9.93
2022-10-18T20:33:35.841Z,11.93
2022-10-18T20:36:08.241Z,10.13
2022-10-18T20:38:37.407Z,11.13
2022-10-18T20:41:12.752Z,12.60
2022-10-18T20:43:40.118Z,9.82
2022-10-18T20:46:07.839Z,9.98
2022-10-18T20:48:34.764Z,10.60
2022-10-18T20:51:10.666Z,10.82
2022-10-18T20:53:37.542Z,9.68
2022-10-18T20:56:04.155Z,11.40
2022-10-18T20:58:30.967Z,11.75
2022-10-18T21:01:14.464Z,11.63
2022-10-18T21:03:44.867Z,13.85
2022-10-18T21:06:23.620Z,9.90
2022-10-18T21:08:54.886Z,9.15
2022-10-18T21:11:21.957Z,9.23
2022-10-18T21:13:52.299Z,9.07
2022-10-18T21:16:19.444Z,9.65
2022-10-18T21:18:46.524Z,8.13
2022-10-18T21:21:21.174Z,8.07
2022-10-18T21:23:47.703Z,8.32
2022-10-18T21:26:25.916Z,9.50
2022-10-18T21:28:56.566Z,8.63
2022-10-18T21:31:29.182Z,8.98
2022-10-18T21:33:58.741Z,7.97
2022-10-18T21:36:26.384Z,8.00
2022-10-18T21:38:53.159Z,7.38
2022-10-18T21:41:21.024Z,8.00
2022-10-18T21:43:50.463Z,7.80
2022-10-18T21:46:18.332Z,9.57
2022-10-18T21:48:46.942Z,7.35
2022-10-18T21:51:15.858Z,7.45
2022-10-18T21:53:44.091Z,9.77
2022-10-18T21:56:13.238Z,7.90
2022-10-18T21:58:40.620Z,9.30
2022-10-18T22:01:13.201Z,8.27
2022-10-18T22:03:40.542Z,7.13
2022-10-18T22:06:13.502Z,7.50
2022-10-18T22:08:47.586Z,7.10
2022-10-18T22:11:14.670Z,7.38
2022-10-18T22:13:41.699Z,7.13
2022-10-18T22:16:09.726Z,8.75
2022-10-18T22:18:36.323Z,7.25
2022-10-18T22:21:07.387Z,7.65
2022-10-18T22:23:38.722Z,7.45
2022-10-18T22:26:11.400Z,7.05
2022-10-18T22:28:39.116Z,8.13
2022-10-18T22:31:06.119Z,9.50
2022-10-18T22:33:32.759Z,8.80
2022-10-18T22:35:59.335Z,8.40
2022-10-18T22:38:25.877Z,8.38
2022-10-18T22:40:52.413Z,8.15
2022-10-18T22:43:18.988Z,9.98
2022-10-18T22:45:45.481Z,7.72
2022-10-18T22:48:12.087Z,7.35
2022-10-18T22:50:38.629Z,7.65
2022-10-18T22:53:05.189Z,8.00
2022-10-18T22:55:31.685Z,9.25
2022-10-18T22:57:58.169Z,9.50
2022-10-18T23:00:24.760Z,8.30
2022-10-18T23:02:51.528Z,9.60
2022-10-18T23:05:18.074Z,9.07
2022-10-18T23:07:49.219Z,8.63
2022-10-18T23:10:15.847Z,8.55
2022-10-18T23:12:42.448Z,8.75
2022-10-18T23:15:09.440Z,8.32
2022-10-18T23:17:36.368Z,8.85
2022-10-18T23:20:03.902Z,8.05
2022-10-18T23:22:30.488Z,8.00
2022-10-18T23:24:57.105Z,10.57
2022-10-18T23:27:23.628Z,7.47
2022-10-18T23:29:50.131Z,8.65
2022-10-18T23:32:16.700Z,7.07
2022-10-18T23:34:43.249Z,8.13
2022-10-18T23:37:09.783Z,10.27
2022-10-18T23:39:36.296Z,9.10
2022-10-18T23:42:02.866Z,8.25
2022-10-18T23:44:29.386Z,8.68
2022-10-18T23:46:56.021Z,7.90
2022-10-18T23:49:22.523Z,7.47
2022-10-18T23:51:49.143Z,8.18
2022-10-18T23:54:15.667Z,11.20
2022-10-18T23:56:42.279Z,7.30
2022-10-18T23:59:08.808Z,7.30
